sensor_id;sensor_type;location;lat;lon;timestamp;pressure;altitude;pressure_sealevel;temperature;humidity
69027;BME280;56080;47.594;19.116;2022-07-29T00:02:12;100262;;;24.17;49.18
69027;BME280;56080;47.594;19.116;2022-07-29T00:07:14;100265;;;24.20;49.03
69027;BME280;56080;47.594;19.116;2022-07-29T00:12:14;100265;;;24.23;49.54
69027;BME280;56080;47.594;19.116;2022-07-29T00:17:13;100263;;;24.06;49.63
69027;BME280;56080;47.594;19.116;2022-07-29T00:22:12;100261;;;24.00;48.76
69027;BME280;56080;47.594;19.116;2022-07-29T00:27:12;100258;;;24.13;48.83
69027;BME280;56080;47.594;19.116;2022-07-29T00:32:12;100267;;;24.00;48.47
69027;BME280;56080;47.594;19.116;2022-07-29T00:37:12;100272;;;24.10;48.18
69027;BME280;56080;47.594;19.116;2022-07-29T00:42:12;100269;;;23.82;49.03
69027;BME280;56080;47.594;19.116;2022-07-29T00:47:12;100270;;;23.83;49.40
69027;BME280;56080;47.594;19.116;2022-07-29T00:52:12;100271;;;23.85;50.29
69027;BME280;56080;47.594;19.116;2022-07-29T00:57:12;100265;;;23.89;49.93
69027;BME280;56080;47.594;19.116;2022-07-29T01:02:12;100267;;;23.69;50.09
69027;BME280;56080;47.594;19.116;2022-07-29T01:07:12;100266;;;23.78;50.08
69027;BME280;56080;47.594;19.116;2022-07-29T01:12:13;100257;;;23.68;50.53
69027;BME280;56080;47.594;19.116;2022-07-29T01:22:19;100251;;;24.06;50.21
69027;BME280;56080;47.594;19.116;2022-07-29T01:27:29;100261;;;24.42;49.25
69027;BME280;56080;47.594;19.116;2022-07-29T01:32:24;100253;;;24.00;50.03
69027;BME280;56080;47.594;19.116;2022-07-29T01:37:18;100250;;;23.82;50.52
69027;BME280;56080;47.594;19.116;2022-07-29T01:47:14;100248;;;23.39;50.98
69027;BME280;56080;47.594;19.116;2022-07-29T01:52:15;100248;;;23.43;50.40
69027;BME280;56080;47.594;19.116;2022-07-29T01:57:13;100242;;;23.36;50.59
69027;BME280;56080;47.594;19.116;2022-07-29T02:02:13;100244;;;23.38;50.74
69027;BME280;56080;47.594;19.116;2022-07-29T02:07:13;100243;;;23.25;51.56
69027;BME280;56080;47.594;19.116;2022-07-29T02:12:12;100249;;;23.19;51.92
69027;BME280;56080;47.594;19.116;2022-07-29T02:17:12;100251;;;23.31;51.99
69027;BME280;56080;47.594;19.116;2022-07-29T02:22:12;100246;;;23.19;52.78
69027;BME280;56080;47.594;19.116;2022-07-29T02:27:12;100249;;;23.22;52.49
69027;BME280;56080;47.594;19.116;2022-07-29T02:32:13;100243;;;23.17;52.83
69027;BME280;56080;47.594;19.116;2022-07-29T02:37:12;100244;;;23.05;53.46
69027;BME280;56080;47.594;19.116;2022-07-29T02:42:13;100243;;;23.02;53.94
69027;BME280;56080;47.594;19.116;2022-07-29T02:52:15;100235;;;22.81;55.22
69027;BME280;56080;47.594;19.116;2022-07-29T02:57:14;100240;;;22.78;55.48
69027;BME280;56080;47.594;19.116;2022-07-29T03:02:13;100235;;;22.62;56.17
69027;BME280;56080;47.594;19.116;2022-07-29T03:07:13;100243;;;22.59;55.93
69027;BME280;56080;47.594;19.116;2022-07-29T03:12:12;100247;;;22.74;55.69
69027;BME280;56080;47.594;19.116;2022-07-29T03:17:12;100245;;;22.72;55.92
69027;BME280;56080;47.594;19.116;2022-07-29T03:22:12;100247;;;22.67;55.81
69027;BME280;56080;47.594;19.116;2022-07-29T03:27:12;100245;;;22.84;55.22
69027;BME280;56080;47.594;19.116;2022-07-29T03:32:12;100251;;;22.72;55.37
69027;BME280;56080;47.594;19.116;2022-07-29T03:37:12;100246;;;22.57;55.94
69027;BME280;56080;47.594;19.116;2022-07-29T03:42:13;100244;;;22.50;55.69
69027;BME280;56080;47.594;19.116;2022-07-29T03:47:13;100247;;;22.26;56.73
69027;BME280;56080;47.594;19.116;2022-07-29T03:52:12;100246;;;22.62;55.33
69027;BME280;56080;47.594;19.116;2022-07-29T03:57:12;100246;;;22.69;55.33
69027;BME280;56080;47.594;19.116;2022-07-29T04:02:12;100259;;;22.27;56.72
69027;BME280;56080;47.594;19.116;2022-07-29T04:07:13;100258;;;22.68;55.93
69027;BME280;56080;47.594;19.116;2022-07-29T04:12:12;100262;;;22.83;55.36
69027;BME280;56080;47.594;19.116;2022-07-29T04:17:12;100263;;;22.73;55.60
69027;BME280;56080;47.594;19.116;2022-07-29T04:22:12;100259;;;22.63;55.83
69027;BME280;56080;47.594;19.116;2022-07-29T04:27:12;100258;;;22.85;55.26
69027;BME280;56080;47.594;19.116;2022-07-29T04:32:13;100258;;;22.96;54.89
69027;BME280;56080;47.594;19.116;2022-07-29T04:37:12;100260;;;23.17;54.21
69027;BME280;56080;47.594;19.116;2022-07-29T04:42:13;100251;;;23.41;53.76
69027;BME280;56080;47.594;19.116;2022-07-29T04:47:12;100259;;;23.84;52.62
69027;BME280;56080;47.594;19.116;2022-07-29T04:52:12;100267;;;24.55;50.87
69027;BME280;56080;47.594;19.116;2022-07-29T04:57:12;100267;;;24.70;49.75
69027;BME280;56080;47.594;19.116;2022-07-29T05:02:12;100268;;;24.98;49.37
69027;BME280;56080;47.594;19.116;2022-07-29T05:07:12;100275;;;25.34;48.66
69027;BME280;56080;47.594;19.116;2022-07-29T05:12:12;100272;;;25.81;47.26
69027;BME280;56080;47.594;19.116;2022-07-29T05:17:12;100275;;;26.40;46.39
69027;BME280;56080;47.594;19.116;2022-07-29T05:22:12;100267;;;26.57;45.66
69027;BME280;56080;47.594;19.116;2022-07-29T05:27:12;100276;;;26.53;45.92
69027;BME280;56080;47.594;19.116;2022-07-29T05:32:12;100265;;;27.15;44.72
69027;BME280;56080;47.594;19.116;2022-07-29T05:37:13;100269;;;27.64;42.80
69027;BME280;56080;47.594;19.116;2022-07-29T05:42:12;100275;;;28.32;41.04
69027;BME280;56080;47.594;19.116;2022-07-29T05:47:12;100278;;;28.78;40.41
69027;BME280;56080;47.594;19.116;2022-07-29T05:52:13;100274;;;29.23;39.86
69027;BME280;56080;47.594;19.116;2022-07-29T05:57:20;100280;;;29.99;38.44
69027;BME280;56080;47.594;19.116;2022-07-29T06:02:12;100282;;;30.20;37.83
69027;BME280;56080;47.594;19.116;2022-07-29T06:07:12;100279;;;31.32;35.43
69027;BME280;56080;47.594;19.116;2022-07-29T06:12:12;100277;;;31.89;33.94
69027;BME280;56080;47.594;19.116;2022-07-29T06:17:12;100281;;;32.20;32.18
69027;BME280;56080;47.594;19.116;2022-07-29T06:22:14;100280;;;32.33;31.89
69027;BME280;56080;47.594;19.116;2022-07-29T06:27:12;100282;;;32.52;31.72
69027;BME280;56080;47.594;19.116;2022-07-29T06:32:12;100287;;;31.68;33.22
69027;BME280;56080;47.594;19.116;2022-07-29T06:37:17;100283;;;31.96;32.88
69027;BME280;56080;47.594;19.116;2022-07-29T06:42:12;100290;;;30.27;34.48
69027;BME280;56080;47.594;19.116;2022-07-29T06:47:12;100289;;;31.52;32.43
69027;BME280;56080;47.594;19.116;2022-07-29T06:52:12;100284;;;33.38;29.56
69027;BME280;56080;47.594;19.116;2022-07-29T06:57:12;100286;;;34.11;28.41
69027;BME280;56080;47.594;19.116;2022-07-29T07:02:13;100283;;;34.61;27.73
69027;BME280;56080;47.594;19.116;2022-07-29T07:07:12;100282;;;33.56;28.37
69027;BME280;56080;47.594;19.116;2022-07-29T07:12:13;100287;;;33.61;28.73
69027;BME280;56080;47.594;19.116;2022-07-29T07:17:12;100279;;;34.18;27.94
69027;BME280;56080;47.594;19.116;2022-07-29T07:22:12;100282;;;33.75;28.83
69027;BME280;56080;47.594;19.116;2022-07-29T07:27:13;100274;;;34.21;28.24
69027;BME280;56080;47.594;19.116;2022-07-29T07:32:13;100271;;;35.19;26.69
69027;BME280;56080;47.594;19.116;2022-07-29T07:37:14;100265;;;36.62;24.72
69027;BME280;56080;47.594;19.116;2022-07-29T07:42:12;100271;;;35.00;26.11
69027;BME280;56080;47.594;19.116;2022-07-29T07:47:13;100273;;;34.76;27.04
69027;BME280;56080;47.594;19.116;2022-07-29T07:52:13;100261;;;35.31;26.51
69027;BME280;56080;47.594;19.116;2022-07-29T07:57:13;100264;;;35.38;25.88
69027;BME280;56080;47.594;19.116;2022-07-29T08:02:13;100256;;;34.97;26.79
69027;BME280;56080;47.594;19.116;2022-07-29T08:07:14;100250;;;36.34;24.97
69027;BME280;56080;47.594;19.116;2022-07-29T08:12:12;100245;;;36.74;24.20
69027;BME280;56080;47.594;19.116;2022-07-29T08:17:12;100245;;;36.14;25.11
69027;BME280;56080;47.594;19.116;2022-07-29T08:22:12;100242;;;36.37;24.90
69027;BME280;56080;47.594;19.116;2022-07-29T08:27:22;100249;;;34.10;27.66
69027;BME280;56080;47.594;19.116;2022-07-29T08:32:13;100245;;;35.44;26.18
69027;BME280;56080;47.594;19.116;2022-07-29T08:37:12;100242;;;36.73;24.50
69027;BME280;56080;47.594;19.116;2022-07-29T08:42:13;100239;;;36.80;24.82
69027;BME280;56080;47.594;19.116;2022-07-29T08:47:14;100241;;;35.87;25.57
69027;BME280;56080;47.594;19.116;2022-07-29T08:52:12;100243;;;35.43;26.32
69027;BME280;56080;47.594;19.116;2022-07-29T08:57:14;100233;;;35.06;26.86
69027;BME280;56080;47.594;19.116;2022-07-29T09:02:18;100231;;;35.75;26.30
69027;BME280;56080;47.594;19.116;2022-07-29T09:07:17;100226;;;35.33;25.81
69027;BME280;56080;47.594;19.116;2022-07-29T09:12:12;100222;;;35.32;26.16
69027;BME280;56080;47.594;19.116;2022-07-29T09:17:13;100227;;;34.75;26.83
69027;BME280;56080;47.594;19.116;2022-07-29T09:22:12;100220;;;33.73;28.15
69027;BME280;56080;47.594;19.116;2022-07-29T09:27:21;100216;;;34.40;26.66
69027;BME280;56080;47.594;19.116;2022-07-29T09:32:13;100208;;;34.10;26.76
69027;BME280;56080;47.594;19.116;2022-07-29T09:37:25;100205;;;34.59;26.46
69027;BME280;56080;47.594;19.116;2022-07-29T09:42:13;100197;;;33.97;27.26
69027;BME280;56080;47.594;19.116;2022-07-29T09:47:13;100195;;;33.67;27.52
69027;BME280;56080;47.594;19.116;2022-07-29T09:52:12;100190;;;33.86;27.43
69027;BME280;56080;47.594;19.116;2022-07-29T09:57:28;100185;;;33.66;27.41
69027;BME280;56080;47.594;19.116;2022-07-29T10:02:13;100172;;;33.15;28.08
69027;BME280;56080;47.594;19.116;2022-07-29T10:07:13;100176;;;33.22;28.10
69027;BME280;56080;47.594;19.116;2022-07-29T10:12:14;100178;;;33.59;27.99
69027;BME280;56080;47.594;19.116;2022-07-29T10:17:12;100176;;;33.53;26.09
69027;BME280;56080;47.594;19.116;2022-07-29T10:22:12;100166;;;33.13;26.68
69027;BME280;56080;47.594;19.116;2022-07-29T10:27:13;100165;;;33.36;26.56
69027;BME280;56080;47.594;19.116;2022-07-29T10:52:13;100158;;;32.76;27.79
69027;BME280;56080;47.594;19.116;2022-07-29T11:07:16;100130;;;32.86;27.67
69027;BME280;56080;47.594;19.116;2022-07-29T11:17:14;100125;;;32.71;27.54
69027;BME280;56080;47.594;19.116;2022-07-29T11:22:34;100117;;;32.59;27.70
69027;BME280;56080;47.594;19.116;2022-07-29T11:27:21;100117;;;32.45;28.01
69027;BME280;56080;47.594;19.116;2022-07-29T11:32:20;100114;;;32.50;27.75
69027;BME280;56080;47.594;19.116;2022-07-29T11:37:14;100106;;;32.56;27.26
69027;BME280;56080;47.594;19.116;2022-07-29T11:47:18;100097;;;32.37;27.27
69027;BME280;56080;47.594;19.116;2022-07-29T11:52:13;100087;;;32.25;27.98
69027;BME280;56080;47.594;19.116;2022-07-29T11:57:16;100086;;;32.37;26.86
69027;BME280;56080;47.594;19.116;2022-07-29T12:02:22;100076;;;34.21;24.65
69027;BME280;56080;47.594;19.116;2022-07-29T12:07:16;100078;;;38.41;19.46
69027;BME280;56080;47.594;19.116;2022-07-29T12:12:13;100068;;;39.11;18.57
69027;BME280;56080;47.594;19.116;2022-07-29T12:17:29;100060;;;39.09;18.57
69027;BME280;56080;47.594;19.116;2022-07-29T12:22:13;100049;;;39.82;17.89
69027;BME280;56080;47.594;19.116;2022-07-29T12:27:16;100048;;;38.77;18.50
69027;BME280;56080;47.594;19.116;2022-07-29T12:32:19;100044;;;39.08;18.11
69027;BME280;56080;47.594;19.116;2022-07-29T12:37:12;100030;;;37.75;19.38
69027;BME280;56080;47.594;19.116;2022-07-29T12:42:15;100022;;;39.65;17.64
69027;BME280;56080;47.594;19.116;2022-07-29T12:47:13;100013;;;39.24;17.66
69027;BME280;56080;47.594;19.116;2022-07-29T12:57:21;100001;;;39.20;17.88
69027;BME280;56080;47.594;19.116;2022-07-29T13:02:21;100005;;;40.18;16.73
69027;BME280;56080;47.594;19.116;2022-07-29T13:07:15;99993;;;41.45;15.92
69027;BME280;56080;47.594;19.116;2022-07-29T13:12:13;99990;;;36.35;20.87
69027;BME280;56080;47.594;19.116;2022-07-29T13:17:17;99987;;;34.72;22.60
69027;BME280;56080;47.594;19.116;2022-07-29T13:22:15;99985;;;34.41;23.50
69027;BME280;56080;47.594;19.116;2022-07-29T13:27:14;99981;;;33.65;23.80
69027;BME280;56080;47.594;19.116;2022-07-29T13:32:13;99977;;;33.59;23.82
69027;BME280;56080;47.594;19.116;2022-07-29T13:37:12;99969;;;33.25;24.53
69027;BME280;56080;47.594;19.116;2022-07-29T13:42:13;99968;;;33.48;24.54
69027;BME280;56080;47.594;19.116;2022-07-29T13:47:13;99958;;;33.68;24.52
69027;BME280;56080;47.594;19.116;2022-07-29T13:52:13;99956;;;34.17;23.30
69027;BME280;56080;47.594;19.116;2022-07-29T13:57:13;99957;;;33.53;24.24
69027;BME280;56080;47.594;19.116;2022-07-29T14:02:16;99952;;;33.05;24.92
69027;BME280;56080;47.594;19.116;2022-07-29T14:07:16;99943;;;33.08;25.27
69027;BME280;56080;47.594;19.116;2022-07-29T14:12:13;99941;;;33.13;25.07
69027;BME280;56080;47.594;19.116;2022-07-29T14:17:13;99938;;;33.05;25.33
69027;BME280;56080;47.594;19.116;2022-07-29T14:22:13;99940;;;32.96;25.37
69027;BME280;56080;47.594;19.116;2022-07-29T14:27:13;99928;;;32.97;25.16
69027;BME280;56080;47.594;19.116;2022-07-29T14:32:14;99930;;;32.89;25.68
69027;BME280;56080;47.594;19.116;2022-07-29T14:37:16;99926;;;32.80;25.73
69027;BME280;56080;47.594;19.116;2022-07-29T14:42:13;99917;;;32.96;25.27
69027;BME280;56080;47.594;19.116;2022-07-29T14:47:13;99911;;;33.02;24.89
69027;BME280;56080;47.594;19.116;2022-07-29T14:52:13;99908;;;33.37;24.86
69027;BME280;56080;47.594;19.116;2022-07-29T14:57:13;99905;;;33.29;23.97
69027;BME280;56080;47.594;19.116;2022-07-29T15:02:13;99893;;;33.24;25.26
69027;BME280;56080;47.594;19.116;2022-07-29T15:07:13;99888;;;33.10;24.81
69027;BME280;56080;47.594;19.116;2022-07-29T15:17:13;99887;;;32.91;25.13
69027;BME280;56080;47.594;19.116;2022-07-29T15:22:13;99885;;;32.88;25.83
69027;BME280;56080;47.594;19.116;2022-07-29T15:27:14;99879;;;32.94;24.91
69027;BME280;56080;47.594;19.116;2022-07-29T15:32:13;99878;;;33.08;24.83
69027;BME280;56080;47.594;19.116;2022-07-29T15:37:13;99878;;;32.59;26.79
69027;BME280;56080;47.594;19.116;2022-07-29T15:42:13;99862;;;32.78;25.45
69027;BME280;56080;47.594;19.116;2022-07-29T15:47:13;99857;;;37.11;20.45
69027;BME280;56080;47.594;19.116;2022-07-29T15:52:13;99854;;;39.29;17.53
69027;BME280;56080;47.594;19.116;2022-07-29T15:57:13;99847;;;39.14;17.72
69027;BME280;56080;47.594;19.116;2022-07-29T16:02:13;99842;;;39.38;17.27
69027;BME280;56080;47.594;19.116;2022-07-29T16:07:14;99833;;;39.82;17.33
69027;BME280;56080;47.594;19.116;2022-07-29T16:12:16;99843;;;35.14;21.64
69027;BME280;56080;47.594;19.116;2022-07-29T16:17:15;99845;;;34.24;23.06
69027;BME280;56080;47.594;19.116;2022-07-29T16:22:13;99847;;;33.60;23.78
69027;BME280;56080;47.594;19.116;2022-07-29T16:27:13;99849;;;33.47;24.47
69027;BME280;56080;47.594;19.116;2022-07-29T16:32:13;99849;;;33.42;24.42
69027;BME280;56080;47.594;19.116;2022-07-29T16:37:14;99847;;;33.39;24.19
69027;BME280;56080;47.594;19.116;2022-07-29T16:42:22;99843;;;33.23;24.71
69027;BME280;56080;47.594;19.116;2022-07-29T16:47:13;99839;;;32.89;25.63
69027;BME280;56080;47.594;19.116;2022-07-29T16:52:13;99840;;;32.93;25.64
69027;BME280;56080;47.594;19.116;2022-07-29T17:02:13;99847;;;32.96;25.81
69027;BME280;56080;47.594;19.116;2022-07-29T17:07:13;99843;;;32.89;25.86
69027;BME280;56080;47.594;19.116;2022-07-29T17:12:13;99834;;;35.64;22.57
69027;BME280;56080;47.594;19.116;2022-07-29T17:17:21;99841;;;37.55;20.43
69027;BME280;56080;47.594;19.116;2022-07-29T17:22:19;99846;;;38.07;19.69
69027;BME280;56080;47.594;19.116;2022-07-29T17:27:13;99845;;;37.95;19.86
69027;BME280;56080;47.594;19.116;2022-07-29T17:32:13;99847;;;38.17;19.74
69027;BME280;56080;47.594;19.116;2022-07-29T17:37:13;99851;;;38.14;19.59
69027;BME280;56080;47.594;19.116;2022-07-29T17:42:13;99846;;;37.72;19.99
69027;BME280;56080;47.594;19.116;2022-07-29T17:47:16;99841;;;38.03;19.89
69027;BME280;56080;47.594;19.116;2022-07-29T17:52:13;99843;;;34.38;23.91
69027;BME280;56080;47.594;19.116;2022-07-29T17:57:13;99849;;;33.32;25.92
69027;BME280;56080;47.594;19.116;2022-07-29T18:02:13;99854;;;32.65;27.28
69027;BME280;56080;47.594;19.116;2022-07-29T18:07:13;99860;;;32.22;28.34
69027;BME280;56080;47.594;19.116;2022-07-29T18:12:13;99860;;;31.83;29.16
69027;BME280;56080;47.594;19.116;2022-07-29T18:17:13;99867;;;31.57;30.29
69027;BME280;56080;47.594;19.116;2022-07-29T18:22:14;99879;;;31.08;31.77
69027;BME280;56080;47.594;19.116;2022-07-29T18:27:13;99889;;;30.74;33.39
69027;BME280;56080;47.594;19.116;2022-07-29T18:32:13;99894;;;29.63;33.59
69027;BME280;56080;47.594;19.116;2022-07-29T18:37:13;99910;;;29.57;34.81
69027;BME280;56080;47.594;19.116;2022-07-29T18:42:13;99921;;;29.45;35.43
69027;BME280;56080;47.594;19.116;2022-07-29T18:52:13;99930;;;29.33;35.67
69027;BME280;56080;47.594;19.116;2022-07-29T18:57:22;99934;;;29.14;36.18
69027;BME280;56080;47.594;19.116;2022-07-29T19:07:13;99960;;;29.08;36.83
69027;BME280;56080;47.594;19.116;2022-07-29T19:12:13;99958;;;28.94;37.16
69027;BME280;56080;47.594;19.116;2022-07-29T19:17:13;99957;;;28.99;37.28
69027;BME280;56080;47.594;19.116;2022-07-29T19:22:13;99960;;;28.88;37.80
69027;BME280;56080;47.594;19.116;2022-07-29T19:27:13;99962;;;28.83;38.27
69027;BME280;56080;47.594;19.116;2022-07-29T19:32:13;99953;;;28.81;38.54
69027;BME280;56080;47.594;19.116;2022-07-29T19:42:13;99953;;;28.72;38.84
69027;BME280;56080;47.594;19.116;2022-07-29T19:47:17;99949;;;28.54;39.40
69027;BME280;56080;47.594;19.116;2022-07-29T19:52:13;99950;;;28.48;39.76
69027;BME280;56080;47.594;19.116;2022-07-29T19:57:14;99954;;;28.44;40.06
69027;BME280;56080;47.594;19.116;2022-07-29T20:02:13;99953;;;28.31;40.46
69027;BME280;56080;47.594;19.116;2022-07-29T20:07:13;99948;;;28.13;41.08
69027;BME280;56080;47.594;19.116;2022-07-29T20:12:13;99953;;;28.06;41.39
69027;BME280;56080;47.594;19.116;2022-07-29T20:17:13;99959;;;28.08;41.55
69027;BME280;56080;47.594;19.116;2022-07-29T20:22:21;99962;;;27.95;41.96
69027;BME280;56080;47.594;19.116;2022-07-29T20:27:14;99965;;;28.04;41.82
69027;BME280;56080;47.594;19.116;2022-07-29T20:32:13;99976;;;28.00;41.91
69027;BME280;56080;47.594;19.116;2022-07-29T20:37:15;99973;;;27.81;42.43
69027;BME280;56080;47.594;19.116;2022-07-29T20:47:13;99980;;;27.75;42.80
69027;BME280;56080;47.594;19.116;2022-07-29T20:52:13;99985;;;27.63;43.23
69027;BME280;56080;47.594;19.116;2022-07-29T20:57:13;99993;;;27.43;43.86
69027;BME280;56080;47.594;19.116;2022-07-29T21:02:13;100001;;;27.39;44.04
69027;BME280;56080;47.594;19.116;2022-07-29T21:07:13;99997;;;27.21;44.70
69027;BME280;56080;47.594;19.116;2022-07-29T21:12:13;99998;;;26.82;46.07
69027;BME280;56080;47.594;19.116;2022-07-29T21:22:13;100007;;;26.76;46.99
69027;BME280;56080;47.594;19.116;2022-07-29T21:27:31;100004;;;26.80;46.84
69027;BME280;56080;47.594;19.116;2022-07-29T21:32:23;99998;;;26.60;47.60
69027;BME280;56080;47.594;19.116;2022-07-29T21:37:13;100008;;;26.55;47.74
69027;BME280;56080;47.594;19.116;2022-07-29T21:42:13;100016;;;26.48;47.94
69027;BME280;56080;47.594;19.116;2022-07-29T21:47:13;100025;;;26.35;48.20
69027;BME280;56080;47.594;19.116;2022-07-29T21:52:13;100035;;;26.38;48.34
69027;BME280;56080;47.594;19.116;2022-07-29T21:57:13;100037;;;26.31;48.63
69027;BME280;56080;47.594;19.116;2022-07-29T22:02:13;100046;;;26.16;49.33
69027;BME280;56080;47.594;19.116;2022-07-29T22:07:13;100048;;;26.17;49.66
69027;BME280;56080;47.594;19.116;2022-07-29T22:12:13;100052;;;25.98;50.66
69027;BME280;56080;47.594;19.116;2022-07-29T22:17:13;100042;;;25.97;50.75
69027;BME280;56080;47.594;19.116;2022-07-29T22:22:13;100035;;;26.02;50.69
69027;BME280;56080;47.594;19.116;2022-07-29T22:27:13;100041;;;25.91;51.23
69027;BME280;56080;47.594;19.116;2022-07-29T22:32:13;100046;;;25.82;51.60
69027;BME280;56080;47.594;19.116;2022-07-29T22:37:13;100049;;;25.53;52.65
69027;BME280;56080;47.594;19.116;2022-07-29T22:42:13;100042;;;25.41;53.16
69027;BME280;56080;47.594;19.116;2022-07-29T22:47:13;100033;;;25.55;52.83
69027;BME280;56080;47.594;19.116;2022-07-29T22:52:15;100037;;;25.56;52.89
69027;BME280;56080;47.594;19.116;2022-07-29T22:57:13;100036;;;25.11;54.24
69027;BME280;56080;47.594;19.116;2022-07-29T23:02:13;100037;;;25.03;54.46
69027;BME280;56080;47.594;19.116;2022-07-29T23:07:13;100031;;;25.08;54.52
69027;BME280;56080;47.594;19.116;2022-07-29T23:12:13;100023;;;25.17;54.20
69027;BME280;56080;47.594;19.116;2022-07-29T23:17:13;100019;;;25.22;54.01
69027;BME280;56080;47.594;19.116;2022-07-29T23:22:13;100019;;;25.14;54.26
69027;BME280;56080;47.594;19.116;2022-07-29T23:27:13;100016;;;25.00;54.57
69027;BME280;56080;47.594;19.116;2022-07-29T23:32:13;100012;;;25.08;54.37
69027;BME280;56080;47.594;19.116;2022-07-29T23:37:13;100001;;;24.91;54.85
69027;BME280;56080;47.594;19.116;2022-07-29T23:42:13;99997;;;24.73;55.53
69027;BME280;56080;47.594;19.116;2022-07-29T23:47:13;99994;;;24.83;55.22
69027;BME280;56080;47.594;19.116;2022-07-29T23:52:13;99985;;;24.57;56.15
69027;BME280;56080;47.594;19.116;2022-07-29T23:57:13;99984;;;24.65;55.95
